createdAt,value
2023-04-30T00:00:09.330Z,13.26
2023-04-30T00:01:10.040Z,13.31
2023-04-30T00:02:10.687Z,13.3
2023-04-30T00:03:12.115Z,13.36
2023-04-30T00:04:12.105Z,13.24
2023-04-30T00:05:12.303Z,13.28
2023-04-30T00:06:12.743Z,13.2
2023-04-30T00:07:13.607Z,13.21
2023-04-30T00:08:14.304Z,13.21
2023-04-30T00:09:14.928Z,13.17
2023-04-30T00:10:15.651Z,13.19
2023-04-30T00:11:16.873Z,13.16
2023-04-30T00:12:17.806Z,13.24
2023-04-30T00:13:18.499Z,13.19
2023-04-30T00:14:19.256Z,13.2
2023-04-30T00:15:20.159Z,13.19
2023-04-30T00:16:21.306Z,13.16
2023-04-30T00:17:21.311Z,13.11
2023-04-30T00:18:21.692Z,13.11
2023-04-30T00:19:21.898Z,13.06
2023-04-30T00:20:22.912Z,13.11
2023-04-30T00:21:24.112Z,13.12
2023-04-30T00:22:24.087Z,13.08
2023-04-30T00:23:24.983Z,13.09
2023-04-30T00:24:25.280Z,13.13
2023-04-30T00:25:25.619Z,13.12
2023-04-30T00:26:26.280Z,13.05
2023-04-30T00:27:27.003Z,13.08
2023-04-30T00:28:27.572Z,13.06
2023-04-30T00:29:28.803Z,13.08
2023-04-30T00:30:29.306Z,13.06
2023-04-30T00:31:29.629Z,13.08
2023-04-30T00:32:30.413Z,13.09
2023-04-30T00:33:31.073Z,13.09
2023-04-30T00:34:31.759Z,13.13
2023-04-30T00:35:32.539Z,13.09
2023-04-30T00:36:32.235Z,13.06
2023-04-30T00:37:32.965Z,12.99
2023-04-30T00:38:33.262Z,13.03
2023-04-30T00:39:33.443Z,13.03
2023-04-30T00:40:34.554Z,12.94
2023-04-30T00:41:34.623Z,12.91
2023-04-30T00:42:35.337Z,12.94
2023-04-30T00:43:36.043Z,12.9
2023-04-30T00:44:36.518Z,13.01
2023-04-30T00:45:37.324Z,12.94
2023-04-30T00:46:38.333Z,13.01
2023-04-30T00:47:39.385Z,12.87
2023-04-30T00:48:40.385Z,12.98
2023-04-30T00:49:41.359Z,12.91
2023-04-30T00:50:41.763Z,12.9
2023-04-30T00:51:41.875Z,12.8
2023-04-30T00:52:42.445Z,12.78
2023-04-30T00:53:42.708Z,12.81
2023-04-30T00:54:43.202Z,12.75
2023-04-30T00:55:43.702Z,12.83
2023-04-30T00:56:44.633Z,12.81
2023-04-30T00:57:44.349Z,12.76
2023-04-30T00:58:44.844Z,12.73
2023-04-30T00:59:45.033Z,12.78
2023-04-30T01:00:45.900Z,12.75
2023-04-30T01:01:46.822Z,12.78
2023-04-30T01:02:47.883Z,12.72
2023-04-30T01:03:48.973Z,12.68
2023-04-30T01:04:49.534Z,12.65
2023-04-30T01:05:50.484Z,12.63
2023-04-30T01:06:50.658Z,12.7
2023-04-30T01:07:51.368Z,12.66
2023-04-30T01:08:52.105Z,12.66
2023-04-30T01:09:53.099Z,12.76
2023-04-30T01:10:52.545Z,12.65
2023-04-30T01:11:53.035Z,12.73
2023-04-30T01:12:54.085Z,12.7
2023-04-30T01:13:54.207Z,12.66
2023-04-30T01:14:55.118Z,12.65
2023-04-30T01:15:56.101Z,12.66
2023-04-30T01:16:56.934Z,12.68
2023-04-30T01:17:57.944Z,12.63
2023-04-30T01:18:58.477Z,12.65
2023-04-30T01:19:58.693Z,12.66
2023-04-30T01:20:58.655Z,12.65
2023-04-30T01:21:59.197Z,12.61
2023-04-30T01:22:59.934Z,12.63
2023-04-30T01:24:00.623Z,12.65
2023-04-30T01:25:00.913Z,12.65
2023-04-30T01:26:01.860Z,12.68
2023-04-30T01:27:01.954Z,12.66
2023-04-30T01:28:02.716Z,12.61
2023-04-30T01:29:03.045Z,12.55
2023-04-30T01:30:03.299Z,12.62
2023-04-30T01:31:03.918Z,12.57
2023-04-30T01:32:04.521Z,12.61
2023-04-30T01:33:05.408Z,12.55
2023-04-30T01:34:05.260Z,12.61
2023-04-30T01:35:08.727Z,12.61
2023-04-30T01:37:06.752Z,12.61
2023-04-30T01:38:07.265Z,12.58
2023-04-30T01:39:07.741Z,12.54
2023-04-30T01:40:08.416Z,12.54
2023-04-30T01:41:09.143Z,12.51
2023-04-30T01:42:09.227Z,12.48
2023-04-30T01:43:10.508Z,12.48
2023-04-30T01:44:11.033Z,12.45
2023-04-30T01:45:11.756Z,12.44
2023-04-30T01:46:12.491Z,12.4
2023-04-30T01:47:13.241Z,12.39
2023-04-30T01:48:14.044Z,12.47
2023-04-30T01:49:14.155Z,12.47
2023-04-30T01:50:14.968Z,12.53
2023-04-30T01:51:16.089Z,12.55
2023-04-30T01:52:16.731Z,12.47
2023-04-30T01:53:17.548Z,12.43
2023-04-30T01:54:17.251Z,12.43
2023-04-30T01:55:18.021Z,12.48
2023-04-30T01:56:18.510Z,12.35
2023-04-30T01:57:19.086Z,12.33
2023-04-30T01:58:20.215Z,12.4
2023-04-30T01:59:20.937Z,12.28
2023-04-30T02:00:21.329Z,12.28
2023-04-30T02:01:22.186Z,12.35
2023-04-30T02:02:22.327Z,12.32
2023-04-30T02:03:22.732Z,12.15
2023-04-30T02:04:22.931Z,12.2
2023-04-30T02:05:23.650Z,12.18
2023-04-30T02:06:24.959Z,12.14
2023-04-30T02:07:24.740Z,12.17
2023-04-30T02:08:26.247Z,12.15
2023-04-30T02:09:26.949Z,12.07
2023-04-30T02:10:27.445Z,12.18
2023-04-30T02:11:28.145Z,12.08
2023-04-30T02:12:28.445Z,12.17
2023-04-30T02:13:28.970Z,12.08
2023-04-30T02:14:30.101Z,12.2
2023-04-30T02:15:30.419Z,12.23
2023-04-30T02:16:31.184Z,12.21
2023-04-30T02:17:31.504Z,12.28
2023-04-30T02:18:31.328Z,12.18
2023-04-30T02:19:32.248Z,12.21
2023-04-30T02:20:32.624Z,12.18
2023-04-30T02:21:33.422Z,12.21
2023-04-30T02:22:33.344Z,12.32
2023-04-30T02:23:34.076Z,12.14
2023-04-30T02:24:34.765Z,12.18
2023-04-30T02:25:35.433Z,12.2
2023-04-30T02:26:36.146Z,12.18
2023-04-30T02:27:36.475Z,12.12
2023-04-30T02:28:37.071Z,12.12
2023-04-30T02:29:37.786Z,12.1
2023-04-30T02:30:37.951Z,12.17
2023-04-30T02:31:38.588Z,12.02
2023-04-30T02:32:39.677Z,12.02
2023-04-30T02:33:39.532Z,12
2023-04-30T02:34:40.440Z,12.03
2023-04-30T02:35:40.742Z,11.95
2023-04-30T02:36:41.474Z,11.97
2023-04-30T02:37:42.373Z,12.03
2023-04-30T02:38:43.316Z,12.02
2023-04-30T02:39:44.257Z,12.03
2023-04-30T02:41:44.723Z,12.11
2023-04-30T02:42:45.709Z,12.1
2023-04-30T02:43:46.470Z,12.02
2023-04-30T02:44:47.178Z,11.97
2023-04-30T02:45:48.011Z,12.1
2023-04-30T02:46:48.654Z,12.02
2023-04-30T02:47:49.164Z,12.1
2023-04-30T02:48:49.892Z,12.08
2023-04-30T02:49:50.623Z,12.17
2023-04-30T02:50:51.006Z,12.2
2023-04-30T02:51:51.505Z,12.2
2023-04-30T02:52:52.410Z,12.2
2023-04-30T02:53:52.946Z,12.2
2023-04-30T02:54:53.655Z,12.26
2023-04-30T02:55:54.168Z,12.15
2023-04-30T02:56:54.457Z,12.26
2023-04-30T02:57:55.038Z,12.17
2023-04-30T02:58:55.807Z,12.32
2023-04-30T02:59:57.154Z,12.3
2023-04-30T03:00:57.132Z,12.32
2023-04-30T03:01:57.967Z,12.21
2023-04-30T03:02:59.084Z,12.17
2023-04-30T03:03:59.715Z,12.23
2023-04-30T03:05:00.050Z,12.2
2023-04-30T03:06:01.230Z,12.28
2023-04-30T03:07:01.924Z,12.21
2023-04-30T03:08:02.621Z,12.23
2023-04-30T03:09:03.351Z,12.18
2023-04-30T03:10:04.039Z,12.07
2023-04-30T03:11:04.801Z,12.03
2023-04-30T03:12:05.081Z,12.17
2023-04-30T03:13:05.791Z,12.08
2023-04-30T03:14:05.540Z,12.1
2023-04-30T03:15:06.148Z,12.07
2023-04-30T03:16:07.429Z,12.05
2023-04-30T03:17:07.532Z,12
2023-04-30T03:18:08.220Z,12.02
2023-04-30T03:19:08.874Z,11.96
2023-04-30T03:20:09.357Z,11.97
2023-04-30T03:22:10.194Z,12.02
2023-04-30T03:23:10.675Z,11.97
2023-04-30T03:24:11.185Z,11.91
2023-04-30T03:25:11.886Z,11.86
2023-04-30T03:26:12.586Z,11.89
2023-04-30T03:27:13.333Z,11.96
2023-04-30T03:28:13.805Z,11.89
2023-04-30T03:29:14.562Z,11.95
2023-04-30T03:30:15.304Z,11.88
2023-04-30T03:31:15.774Z,11.97
2023-04-30T03:32:16.578Z,11.85
2023-04-30T03:33:17.407Z,11.96
2023-04-30T03:34:17.474Z,11.97
2023-04-30T03:35:17.770Z,11.97
2023-04-30T03:36:18.481Z,11.91
2023-04-30T03:37:19.426Z,11.97
2023-04-30T03:38:19.913Z,11.95
2023-04-30T03:39:20.638Z,11.95
2023-04-30T03:40:21.118Z,11.95
2023-04-30T03:41:21.595Z,12
2023-04-30T03:42:22.087Z,11.91
2023-04-30T03:43:22.762Z,11.91
2023-04-30T03:44:23.696Z,11.86
2023-04-30T03:45:24.600Z,11.88
2023-04-30T03:46:25.033Z,11.89
2023-04-30T03:47:25.682Z,11.86
2023-04-30T03:48:26.468Z,11.77
2023-04-30T03:49:27.345Z,11.83
2023-04-30T03:50:27.692Z,11.74
2023-04-30T03:51:28.900Z,11.74
2023-04-30T03:52:29.851Z,11.71
2023-04-30T03:53:30.602Z,11.73
2023-04-30T03:54:31.523Z,11.67
2023-04-30T03:55:32.429Z,11.73
2023-04-30T03:56:32.962Z,11.7
2023-04-30T03:57:33.320Z,11.76
2023-04-30T03:58:34.025Z,11.77
2023-04-30T03:59:34.545Z,11.74
2023-04-30T04:00:34.868Z,11.8
2023-04-30T04:01:35.755Z,11.76
2023-04-30T04:02:36.560Z,11.8
2023-04-30T04:03:36.783Z,11.78
2023-04-30T04:04:36.855Z,11.85
2023-04-30T04:05:37.364Z,11.86
2023-04-30T04:06:38.329Z,11.85
2023-04-30T04:07:38.795Z,11.85
2023-04-30T04:08:39.087Z,11.91
2023-04-30T04:09:39.863Z,11.86
2023-04-30T04:10:40.316Z,11.86
2023-04-30T04:11:40.547Z,11.89
2023-04-30T04:12:41.485Z,11.93
2023-04-30T04:13:42.032Z,11.99
2023-04-30T04:14:42.827Z,11.97
2023-04-30T04:15:43.836Z,11.96
2023-04-30T04:16:44.108Z,11.95
2023-04-30T04:17:44.928Z,11.91
2023-04-30T04:18:44.772Z,11.96
2023-04-30T04:19:45.460Z,11.88
2023-04-30T04:20:46.411Z,11.89
2023-04-30T04:21:46.826Z,11.89
2023-04-30T04:22:47.531Z,11.88
2023-04-30T04:23:48.030Z,11.89
2023-04-30T04:24:48.749Z,11.91
2023-04-30T04:25:49.519Z,11.89
2023-04-30T04:26:53.131Z,11.85
2023-04-30T04:28:51.896Z,11.85
2023-04-30T04:29:53.305Z,11.86
2023-04-30T04:30:52.769Z,11.86
2023-04-30T04:31:53.936Z,11.88
2023-04-30T04:32:54.853Z,11.88
2023-04-30T04:33:55.060Z,11.88
2023-04-30T04:34:56.009Z,11.85
2023-04-30T04:35:56.735Z,11.8
2023-04-30T04:36:57.422Z,11.76
2023-04-30T04:37:57.919Z,11.71
2023-04-30T04:38:58.419Z,11.73
2023-04-30T04:39:59.591Z,11.74
2023-04-30T04:40:59.504Z,11.6
2023-04-30T04:42:00.209Z,11.6
2023-04-30T04:43:00.894Z,11.56
2023-04-30T04:44:01.409Z,11.58
2023-04-30T04:45:02.515Z,11.56
2023-04-30T04:46:03.335Z,11.6
2023-04-30T04:47:03.327Z,11.52
2023-04-30T04:48:04.504Z,11.58
2023-04-30T04:49:05.260Z,11.49
2023-04-30T04:50:06.233Z,11.41
2023-04-30T04:51:06.323Z,11.45
2023-04-30T04:52:07.376Z,11.49
2023-04-30T04:53:08.085Z,11.44
2023-04-30T04:54:08.369Z,11.38
2023-04-30T04:55:09.125Z,11.37
2023-04-30T04:56:10.063Z,11.41
2023-04-30T04:57:10.772Z,11.43
2023-04-30T04:58:11.515Z,11.45
2023-04-30T04:59:12.202Z,11.6
2023-04-30T05:00:12.696Z,11.49
2023-04-30T05:01:13.465Z,11.62
2023-04-30T05:02:14.557Z,11.59
2023-04-30T05:03:14.929Z,11.58
2023-04-30T05:04:15.124Z,11.62
2023-04-30T05:05:14.888Z,11.56
2023-04-30T05:06:16.249Z,11.62
2023-04-30T05:07:16.002Z,11.56
2023-04-30T05:08:16.517Z,11.63
2023-04-30T05:09:17.018Z,11.56
2023-04-30T05:10:17.790Z,11.58
2023-04-30T05:11:21.195Z,11.58
2023-04-30T05:13:19.136Z,11.63
2023-04-30T05:14:19.611Z,11.56
2023-04-30T05:15:20.380Z,11.63
2023-04-30T05:16:20.990Z,11.59
2023-04-30T05:17:21.124Z,11.62
2023-04-30T05:18:21.752Z,11.53
2023-04-30T05:19:22.696Z,11.55
2023-04-30T05:20:23.424Z,11.43
2023-04-30T05:21:24.149Z,11.51
2023-04-30T05:22:24.974Z,11.58
2023-04-30T05:23:25.693Z,11.56
2023-04-30T05:24:26.185Z,11.49
2023-04-30T05:25:27.194Z,11.58
2023-04-30T05:26:27.509Z,11.62
2023-04-30T05:27:28.005Z,11.59
2023-04-30T05:28:28.593Z,11.59
2023-04-30T05:29:29.083Z,11.56
2023-04-30T05:30:29.844Z,11.56
2023-04-30T05:31:30.889Z,11.51
2023-04-30T05:32:31.824Z,11.52
2023-04-30T05:33:31.922Z,11.59
2023-04-30T05:34:32.780Z,11.55
2023-04-30T05:35:33.471Z,11.55
2023-04-30T05:36:33.735Z,11.58
2023-04-30T05:37:34.535Z,11.55
2023-04-30T05:38:35.063Z,11.68
2023-04-30T05:39:35.969Z,11.59
2023-04-30T05:40:37.009Z,11.6
2023-04-30T05:41:37.162Z,11.56
2023-04-30T05:42:37.600Z,11.55
2023-04-30T05:43:38.323Z,11.51
2023-04-30T05:44:39.188Z,11.44
2023-04-30T05:45:40.394Z,11.43
2023-04-30T05:46:40.792Z,11.35
2023-04-30T05:47:41.347Z,11.3
2023-04-30T05:48:42.038Z,11.35
2023-04-30T05:49:42.414Z,11.34
2023-04-30T05:50:43.628Z,11.35
2023-04-30T05:51:43.971Z,11.35
2023-04-30T05:52:45.071Z,11.37
2023-04-30T05:53:46.018Z,11.35
2023-04-30T05:54:50.002Z,11.34
2023-04-30T05:55:46.652Z,11.38
2023-04-30T05:56:47.618Z,11.38
2023-04-30T05:57:48.108Z,11.38
2023-04-30T05:58:48.797Z,11.4
2023-04-30T05:59:49.305Z,11.33
2023-04-30T06:00:49.461Z,11.35
2023-04-30T06:01:50.144Z,11.34
2023-04-30T06:02:51.217Z,11.4
2023-04-30T06:03:51.834Z,11.38
2023-04-30T06:04:52.463Z,11.4
2023-04-30T06:05:53.541Z,11.35
2023-04-30T06:06:53.893Z,11.34
2023-04-30T06:07:54.449Z,11.37
2023-04-30T06:08:55.152Z,11.33
2023-04-30T06:09:56.284Z,11.33
2023-04-30T06:10:56.775Z,11.33
2023-04-30T06:11:57.481Z,11.37
2023-04-30T06:12:58.115Z,11.25
2023-04-30T06:13:59.046Z,11.25
2023-04-30T06:14:59.755Z,11.37
2023-04-30T06:16:00.372Z,11.33
2023-04-30T06:17:01.499Z,11.31
2023-04-30T06:18:01.990Z,11.35
2023-04-30T06:19:02.890Z,11.34
2023-04-30T06:20:03.337Z,11.33
2023-04-30T06:21:04.046Z,11.31
2023-04-30T06:22:04.553Z,11.33
2023-04-30T06:23:05.174Z,11.34
2023-04-30T06:24:05.921Z,11.3
2023-04-30T06:25:06.866Z,11.31
2023-04-30T06:26:07.619Z,11.31
2023-04-30T06:27:08.137Z,11.25
2023-04-30T06:28:09.085Z,11.22
2023-04-30T06:29:10.012Z,11.23
2023-04-30T06:30:10.508Z,11.33
2023-04-30T06:31:11.518Z,11.3
2023-04-30T06:32:13.924Z,11.37
2023-04-30T06:34:13.571Z,11.45
2023-04-30T06:35:14.111Z,11.51
2023-04-30T06:36:14.805Z,11.58
2023-04-30T06:37:15.528Z,11.67
2023-04-30T06:38:16.235Z,11.65
2023-04-30T06:39:17.011Z,11.74
2023-04-30T06:40:17.756Z,11.78
2023-04-30T06:41:18.512Z,11.88
2023-04-30T06:42:18.794Z,11.88
2023-04-30T06:43:19.420Z,11.91
2023-04-30T06:44:20.339Z,12
2023-04-30T06:45:21.094Z,11.96
2023-04-30T06:46:22.119Z,12.1
2023-04-30T06:47:22.242Z,12.08
2023-04-30T06:48:22.830Z,12
2023-04-30T06:49:23.941Z,12.07
2023-04-30T06:50:24.551Z,12.15
2023-04-30T06:51:25.296Z,12.05
2023-04-30T06:52:25.784Z,12.1
2023-04-30T06:53:27.029Z,12.1
2023-04-30T06:54:27.969Z,12.07
2023-04-30T06:55:28.500Z,12.11
2023-04-30T06:56:29.436Z,12.08
2023-04-30T06:57:30.340Z,12.11
2023-04-30T06:58:31.248Z,12.08
2023-04-30T06:59:31.767Z,12.18
2023-04-30T07:00:32.055Z,12.26
2023-04-30T07:01:33.118Z,12.21
2023-04-30T07:02:34.353Z,12.18
2023-04-30T07:03:35.318Z,12.29
2023-04-30T07:04:35.621Z,12.32
2023-04-30T07:05:36.585Z,12.39
2023-04-30T07:06:37.686Z,12.35
2023-04-30T07:07:37.796Z,12.37
2023-04-30T07:08:38.687Z,12.36
2023-04-30T07:09:38.982Z,12.36
2023-04-30T07:10:39.702Z,12.43
2023-04-30T07:11:40.432Z,12.4
2023-04-30T07:12:40.733Z,12.39
2023-04-30T07:13:41.588Z,12.35
2023-04-30T07:14:42.290Z,12.44
2023-04-30T07:15:43.089Z,12.35
2023-04-30T07:16:43.745Z,12.43
2023-04-30T07:17:44.688Z,12.53
2023-04-30T07:18:45.549Z,12.61
2023-04-30T07:19:46.043Z,12.66
2023-04-30T07:20:47.026Z,12.58
2023-04-30T07:21:47.542Z,12.81
2023-04-30T07:22:47.639Z,12.78
2023-04-30T07:23:48.363Z,12.91
2023-04-30T07:24:48.505Z,13.01
2023-04-30T07:25:48.637Z,13.01
2023-04-30T07:26:49.341Z,13.02
2023-04-30T07:27:49.642Z,13.09
2023-04-30T07:28:50.171Z,13.11
2023-04-30T07:29:50.736Z,13.2
2023-04-30T07:30:51.447Z,13.17
2023-04-30T07:31:52.090Z,13.17
2023-04-30T07:32:53.326Z,13.28
2023-04-30T07:33:53.918Z,13.24
2023-04-30T07:34:54.492Z,13.17
2023-04-30T07:35:55.520Z,13.31
2023-04-30T07:36:56.224Z,13.26
2023-04-30T07:37:56.916Z,13.37
2023-04-30T07:38:57.685Z,13.23
2023-04-30T07:39:58.527Z,13.26
2023-04-30T07:40:58.829Z,13.21
2023-04-30T07:41:59.761Z,13.33
2023-04-30T07:43:00.353Z,13.24
2023-04-30T07:44:00.970Z,13.36
2023-04-30T07:45:01.368Z,13.37
2023-04-30T07:46:01.770Z,13.39
2023-04-30T07:47:02.465Z,13.37
2023-04-30T07:48:03.224Z,13.43
2023-04-30T07:49:04.175Z,13.42
2023-04-30T07:50:05.109Z,13.52
2023-04-30T07:51:05.863Z,13.6
2023-04-30T07:52:06.571Z,13.62
2023-04-30T07:53:07.322Z,13.65
2023-04-30T07:54:07.426Z,13.62
2023-04-30T07:55:07.961Z,13.67
2023-04-30T07:56:08.918Z,13.75
2023-04-30T07:57:09.466Z,13.7
2023-04-30T07:58:09.807Z,13.71
2023-04-30T07:59:10.112Z,13.78
2023-04-30T08:00:10.866Z,13.68
2023-04-30T08:01:11.436Z,13.68
2023-04-30T08:02:11.542Z,13.62
2023-04-30T08:03:12.182Z,13.64
2023-04-30T08:04:13.138Z,13.61
2023-04-30T08:05:13.255Z,13.54
2023-04-30T08:06:14.146Z,13.57
2023-04-30T08:07:14.174Z,13.45
2023-04-30T08:08:14.655Z,13.26
2023-04-30T08:09:15.365Z,13.27
2023-04-30T08:10:16.310Z,13.28
2023-04-30T08:11:16.992Z,13.26
2023-04-30T08:12:17.506Z,13.46
2023-04-30T08:13:18.220Z,13.24
2023-04-30T08:14:18.249Z,13.2
2023-04-30T08:15:18.964Z,13.31
2023-04-30T08:16:20.003Z,13.28
2023-04-30T08:17:20.724Z,13.4
2023-04-30T08:18:22.182Z,13.43
2023-04-30T08:20:22.572Z,13.57
2023-04-30T08:21:22.917Z,13.62
2023-04-30T08:22:23.625Z,13.75
2023-04-30T08:23:24.167Z,13.73
2023-04-30T08:24:24.851Z,13.79
2023-04-30T08:25:25.679Z,13.86
2023-04-30T08:26:26.226Z,14
2023-04-30T08:27:26.948Z,13.91
2023-04-30T08:28:27.800Z,14.05
2023-04-30T08:29:28.564Z,14.01
2023-04-30T08:30:29.421Z,14.03
2023-04-30T08:31:29.846Z,14.12
2023-04-30T08:32:30.944Z,14.15
2023-04-30T08:33:31.761Z,14.05
2023-04-30T08:34:32.071Z,14.12
2023-04-30T08:35:32.570Z,14.13
2023-04-30T08:36:33.298Z,14.08
2023-04-30T08:37:33.823Z,14.16
2023-04-30T08:38:34.765Z,14.19
2023-04-30T08:39:35.279Z,14.19
2023-04-30T08:40:55.115Z,14.26
2023-04-30T08:42:37.326Z,14.28
2023-04-30T08:43:38.039Z,14.28
2023-04-30T08:44:38.947Z,14.34
2023-04-30T08:45:39.830Z,14.36
2023-04-30T08:46:40.863Z,14.38
2023-04-30T08:47:41.715Z,14.33
2023-04-30T08:48:42.646Z,14.33
2023-04-30T08:49:43.167Z,14.4
2023-04-30T08:50:44.097Z,14.58
2023-04-30T08:51:44.201Z,14.63
2023-04-30T08:52:45.077Z,14.73
2023-04-30T08:53:46.020Z,14.9
2023-04-30T08:54:46.712Z,15.02
2023-04-30T08:55:47.067Z,15.12
2023-04-30T08:56:46.805Z,15.17
2023-04-30T08:57:47.186Z,15.26
2023-04-30T08:58:47.289Z,15.43
2023-04-30T08:59:48.007Z,15.59
2023-04-30T09:00:48.923Z,15.67
2023-04-30T09:01:53.912Z,15.87
2023-04-30T09:02:50.066Z,16.06
2023-04-30T09:03:50.479Z,16.31
2023-04-30T09:04:50.260Z,16.59
2023-04-30T09:05:50.770Z,16.74
2023-04-30T09:06:51.485Z,17.22
2023-04-30T09:08:08.700Z,17.95
2023-04-30T09:09:54.281Z,18.61
2023-04-30T09:10:53.779Z,19.12
2023-04-30T09:11:54.492Z,19.63
2023-04-30T09:12:55.238Z,19.9
2023-04-30T09:13:56.198Z,19.66
2023-04-30T09:14:56.447Z,19.3
2023-04-30T09:15:56.993Z,19.05
2023-04-30T09:16:57.906Z,18.91
2023-04-30T09:17:58.807Z,18.78
2023-04-30T09:18:59.740Z,18.51
2023-04-30T09:20:00.689Z,18.36
2023-04-30T09:21:01.681Z,18.11
2023-04-30T09:22:02.209Z,17.9
2023-04-30T09:23:02.698Z,17.57
2023-04-30T09:24:03.039Z,17.35
2023-04-30T09:25:03.465Z,17.28
2023-04-30T09:26:03.769Z,17.1
2023-04-30T09:27:04.515Z,17.12
2023-04-30T09:28:05.323Z,16.97
2023-04-30T09:29:06.043Z,16.89
2023-04-30T09:30:06.743Z,16.79
2023-04-30T09:31:06.868Z,16.72
2023-04-30T09:32:07.702Z,16.62
2023-04-30T09:33:12.565Z,16.49
2023-04-30T09:34:09.773Z,16.54
2023-04-30T09:35:10.505Z,16.41
2023-04-30T09:36:11.210Z,16.36
2023-04-30T09:37:12.061Z,16.26
2023-04-30T09:38:12.748Z,16.32
2023-04-30T09:39:16.817Z,16.43
2023-04-30T09:41:15.042Z,16.4
2023-04-30T09:42:15.992Z,16.31
2023-04-30T09:43:17.174Z,16.34
2023-04-30T09:44:16.872Z,16.31
2023-04-30T09:45:17.065Z,16.36
2023-04-30T09:46:17.196Z,16.41
2023-04-30T09:47:18.433Z,16.4
2023-04-30T09:48:23.168Z,16.39
2023-04-30T09:50:18.905Z,16.24
2023-04-30T09:51:19.629Z,16.17
2023-04-30T09:52:20.183Z,16.12
2023-04-30T09:53:20.698Z,15.99
2023-04-30T09:54:21.452Z,15.84
2023-04-30T09:55:21.761Z,15.87
2023-04-30T09:56:22.273Z,15.83
2023-04-30T09:57:23.211Z,15.73
2023-04-30T09:58:23.952Z,15.81
2023-04-30T09:59:24.457Z,15.76
2023-04-30T10:00:25.164Z,15.7
2023-04-30T10:01:26.071Z,15.75
2023-04-30T10:02:26.150Z,15.73
2023-04-30T10:03:26.969Z,15.76
2023-04-30T10:04:28.302Z,15.72
2023-04-30T10:05:29.027Z,15.76
2023-04-30T10:06:29.974Z,15.76
2023-04-30T10:07:29.979Z,15.78
2023-04-30T10:08:30.669Z,15.76
2023-04-30T10:09:31.363Z,15.7
2023-04-30T10:10:31.874Z,15.73
2023-04-30T10:11:32.565Z,15.78
2023-04-30T10:12:33.138Z,15.66
2023-04-30T10:13:33.500Z,15.65
2023-04-30T10:14:34.038Z,15.67
2023-04-30T10:15:34.650Z,15.67
2023-04-30T10:16:35.816Z,15.72
2023-04-30T10:17:36.196Z,15.72
2023-04-30T10:18:36.207Z,15.67
2023-04-30T10:19:36.760Z,15.72
2023-04-30T10:20:37.265Z,15.7
2023-04-30T10:21:37.561Z,15.87
2023-04-30T10:22:38.107Z,15.73
2023-04-30T10:23:39.031Z,15.76
2023-04-30T10:24:39.940Z,15.73
2023-04-30T10:25:40.533Z,15.83
2023-04-30T10:26:40.840Z,15.73
2023-04-30T10:27:41.591Z,15.81
2023-04-30T10:28:42.344Z,15.72
2023-04-30T10:29:42.829Z,15.73
2023-04-30T10:30:43.446Z,15.78
2023-04-30T10:31:44.376Z,15.78
2023-04-30T10:32:45.381Z,15.83
2023-04-30T10:33:45.146Z,15.69
2023-04-30T10:34:46.066Z,15.72
2023-04-30T10:35:46.596Z,15.87
2023-04-30T10:36:47.320Z,15.87
2023-04-30T10:37:47.218Z,15.91
2023-04-30T10:38:49.037Z,15.85
2023-04-30T10:39:48.527Z,15.9
2023-04-30T10:40:49.346Z,15.98
2023-04-30T10:41:49.861Z,15.92
2023-04-30T10:42:50.593Z,15.92
2023-04-30T10:43:51.530Z,16.02
2023-04-30T10:44:52.597Z,16.09
2023-04-30T10:45:53.279Z,16.08
2023-04-30T10:46:53.306Z,16.13
2023-04-30T10:47:53.929Z,16.29
2023-04-30T10:48:54.645Z,16.37
2023-04-30T10:49:55.965Z,16.54
2023-04-30T10:50:55.519Z,16.59
2023-04-30T10:51:55.814Z,16.8
2023-04-30T10:52:56.552Z,16.69
2023-04-30T10:53:57.120Z,16.74
2023-04-30T10:54:57.619Z,16.69
2023-04-30T10:55:58.886Z,16.74
2023-04-30T10:56:59.599Z,16.74
2023-04-30T10:58:00.329Z,16.84
2023-04-30T10:59:01.279Z,16.84
2023-04-30T11:00:02.417Z,16.92
2023-04-30T11:01:02.947Z,16.79
2023-04-30T11:02:03.543Z,16.77
2023-04-30T11:03:04.378Z,16.79
2023-04-30T11:04:04.699Z,16.8
2023-04-30T11:05:05.473Z,16.65
2023-04-30T11:06:06.244Z,16.65
2023-04-30T11:07:06.257Z,16.59
2023-04-30T11:08:06.998Z,16.57
2023-04-30T11:09:07.515Z,16.73
2023-04-30T11:10:08.440Z,16.65
2023-04-30T11:11:08.951Z,16.8
2023-04-30T11:12:09.868Z,16.82
2023-04-30T11:13:10.651Z,16.97
2023-04-30T11:14:11.512Z,17.04
2023-04-30T11:15:11.815Z,17.02
2023-04-30T11:16:12.700Z,17.17
2023-04-30T11:17:12.339Z,17.27
2023-04-30T11:18:13.122Z,17.14
2023-04-30T11:19:17.145Z,17.13
2023-04-30T11:21:15.306Z,17.23
2023-04-30T11:22:15.833Z,17.35
2023-04-30T11:23:39.178Z,17.47
2023-04-30T11:24:17.266Z,17.69
2023-04-30T11:25:17.546Z,17.78
2023-04-30T11:26:18.157Z,17.87
2023-04-30T11:27:19.071Z,18.02
2023-04-30T11:28:20.012Z,18.03
2023-04-30T11:29:21.110Z,18.19
2023-04-30T11:30:21.361Z,18.39
2023-04-30T11:31:22.250Z,18.51
2023-04-30T11:32:22.944Z,18.63
2023-04-30T11:33:23.524Z,18.7
2023-04-30T11:34:24.135Z,18.74
2023-04-30T11:35:25.296Z,19.08
2023-04-30T11:36:25.528Z,19.23
2023-04-30T11:37:26.236Z,19.37
2023-04-30T11:38:26.607Z,19.6
2023-04-30T11:39:27.051Z,19.77
2023-04-30T11:40:27.368Z,19.74
2023-04-30T11:41:28.867Z,19.79
2023-04-30T11:42:29.588Z,19.77
2023-04-30T11:43:31.026Z,19.63
2023-04-30T11:44:31.218Z,19.53
2023-04-30T11:45:31.735Z,19.44
2023-04-30T11:46:32.536Z,19.38
2023-04-30T11:47:33.299Z,19.42
2023-04-30T11:48:33.758Z,19.41
2023-04-30T11:49:34.917Z,19.37
2023-04-30T11:50:35.651Z,19.32
2023-04-30T11:51:36.454Z,19.42
2023-04-30T11:52:37.345Z,19.32
2023-04-30T11:53:37.679Z,19.41
2023-04-30T11:54:38.349Z,19.34
2023-04-30T11:55:39.078Z,19.3
2023-04-30T11:56:41.902Z,19.27
2023-04-30T11:57:40.591Z,19.01
2023-04-30T11:58:40.768Z,18.74
2023-04-30T11:59:41.122Z,18.55
2023-04-30T12:00:41.656Z,18.46
2023-04-30T12:01:42.453Z,18.52
2023-04-30T12:02:43.944Z,18.36
2023-04-30T12:03:43.886Z,18.37
2023-04-30T12:04:44.257Z,18.34
2023-04-30T12:05:44.824Z,18.34
2023-04-30T12:06:45.602Z,18.37
2023-04-30T12:07:46.396Z,18.49
2023-04-30T12:08:46.897Z,18.57
2023-04-30T12:09:47.716Z,18.55
2023-04-30T12:10:48.329Z,18.55
2023-04-30T12:11:48.652Z,18.46
2023-04-30T12:12:52.901Z,18.46
2023-04-30T12:13:49.660Z,18.3
2023-04-30T12:14:50.194Z,18.12
2023-04-30T12:15:50.897Z,18.05
2023-04-30T12:16:52.047Z,17.98
2023-04-30T12:17:52.460Z,18
2023-04-30T12:18:53.672Z,17.93
2023-04-30T12:19:53.912Z,18.06
2023-04-30T12:20:53.937Z,18
2023-04-30T12:21:54.454Z,17.97
2023-04-30T12:22:55.196Z,18.05
2023-04-30T12:23:55.890Z,17.94
2023-04-30T12:24:57.056Z,17.9
2023-04-30T12:25:57.567Z,17.79
2023-04-30T12:26:57.918Z,17.91
2023-04-30T12:27:58.843Z,17.75
2023-04-30T12:28:59.001Z,17.78
2023-04-30T12:29:59.206Z,17.78
2023-04-30T12:30:59.728Z,17.69
2023-04-30T12:32:01.122Z,17.53
2023-04-30T12:33:01.329Z,17.57
2023-04-30T12:34:01.045Z,17.5
2023-04-30T12:35:02.136Z,17.46
2023-04-30T12:36:02.074Z,17.38
2023-04-30T12:37:02.765Z,17.44
2023-04-30T12:38:03.500Z,17.38
2023-04-30T12:39:03.993Z,17.44
2023-04-30T12:40:04.536Z,17.38
2023-04-30T12:41:06.768Z,17.28
2023-04-30T12:43:07.481Z,17.17
2023-04-30T12:44:08.054Z,17.17
2023-04-30T12:45:08.732Z,17.07
2023-04-30T12:46:09.573Z,17.12
2023-04-30T12:47:10.541Z,17.2
2023-04-30T12:48:11.007Z,17.05
2023-04-30T12:49:11.712Z,17.2
2023-04-30T12:50:12.577Z,17.13
2023-04-30T12:51:13.561Z,17.04
2023-04-30T12:52:14.285Z,16.99
2023-04-30T12:53:14.408Z,16.95
2023-04-30T12:54:15.152Z,16.99
2023-04-30T12:55:16.289Z,16.98
2023-04-30T12:56:17.051Z,17.05
2023-04-30T12:57:17.322Z,17.04
2023-04-30T12:58:18.248Z,17.13
2023-04-30T12:59:18.967Z,17.19
2023-04-30T13:00:19.692Z,17.23
2023-04-30T13:01:20.768Z,17.2
2023-04-30T13:02:20.876Z,17.22
2023-04-30T13:03:22.205Z,17.17
2023-04-30T13:04:23.046Z,17.24
2023-04-30T13:05:23.580Z,17.23
2023-04-30T13:06:24.536Z,17.24
2023-04-30T13:07:24.638Z,17.19
2023-04-30T13:08:25.290Z,17.27
2023-04-30T13:09:25.482Z,17.24
2023-04-30T13:10:25.801Z,17.19
2023-04-30T13:11:27.925Z,17.27
2023-04-30T13:12:27.486Z,17.31
2023-04-30T13:13:27.813Z,17.17
2023-04-30T13:14:28.727Z,17.14
2023-04-30T13:15:29.758Z,17.22
2023-04-30T13:16:31.386Z,17.27